sensor_id;sensor_type;location;lat;lon;timestamp;P1;durP1;ratioP1;P2;durP2;ratioP2
40286;SDS011;25998;46.604;13.610;2023-06-14T00:01:20;5.32;;;3.00;;
40286;SDS011;25998;46.604;13.610;2023-06-14T00:04:32;3.97;;;3.10;;
40286;SDS011;25998;46.604;13.610;2023-06-14T00:07:43;3.95;;;3.28;;
40286;SDS011;25998;46.604;13.610;2023-06-14T00:10:54;3.88;;;2.88;;
40286;SDS011;25998;46.604;13.610;2023-06-14T00:14:05;3.50;;;3.13;;
40286;SDS011;25998;46.604;13.610;2023-06-14T00:17:16;4.28;;;2.90;;
40286;SDS011;25998;46.604;13.610;2023-06-14T00:20:27;4.82;;;3.03;;
40286;SDS011;25998;46.604;13.610;2023-06-14T00:23:39;6.10;;;3.00;;
40286;SDS011;25998;46.604;13.610;2023-06-14T00:26:50;4.32;;;3.03;;
40286;SDS011;25998;46.604;13.610;2023-06-14T00:30:00;6.40;;;3.30;;
40286;SDS011;25998;46.604;13.610;2023-06-14T00:33:11;5.88;;;3.20;;
40286;SDS011;25998;46.604;13.610;2023-06-14T00:36:23;4.35;;;3.00;;
40286;SDS011;25998;46.604;13.610;2023-06-14T00:39:33;4.10;;;3.30;;
40286;SDS011;25998;46.604;13.610;2023-06-14T00:42:45;4.90;;;3.00;;
40286;SDS011;25998;46.604;13.610;2023-06-14T00:45:55;3.80;;;3.05;;
40286;SDS011;25998;46.604;13.610;2023-06-14T00:49:06;4.03;;;3.00;;
40286;SDS011;25998;46.604;13.610;2023-06-14T00:52:18;4.00;;;3.33;;
40286;SDS011;25998;46.604;13.610;2023-06-14T00:55:29;3.85;;;3.10;;
40286;SDS011;25998;46.604;13.610;2023-06-14T00:58:40;3.47;;;2.60;;
40286;SDS011;25998;46.604;13.610;2023-06-14T01:01:52;4.82;;;2.97;;
40286;SDS011;25998;46.604;13.610;2023-06-14T01:05:03;3.28;;;2.70;;
40286;SDS011;25998;46.604;13.610;2023-06-14T01:08:51;5.60;;;3.42;;
40286;SDS011;25998;46.604;13.610;2023-06-14T01:15:33;4.28;;;2.88;;
40286;SDS011;25998;46.604;13.610;2023-06-14T01:18:45;4.97;;;2.97;;
40286;SDS011;25998;46.604;13.610;2023-06-14T01:22:00;5.65;;;3.50;;
40286;SDS011;25998;46.604;13.610;2023-06-14T01:25:12;4.78;;;2.80;;
40286;SDS011;25998;46.604;13.610;2023-06-14T01:28:24;5.25;;;3.42;;
40286;SDS011;25998;46.604;13.610;2023-06-14T01:31:36;6.43;;;3.35;;
40286;SDS011;25998;46.604;13.610;2023-06-14T01:34:51;5.60;;;2.95;;
40286;SDS011;25998;46.604;13.610;2023-06-14T01:38:02;7.28;;;3.53;;
40286;SDS011;25998;46.604;13.610;2023-06-14T01:41:16;5.88;;;3.72;;
40286;SDS011;25998;46.604;13.610;2023-06-14T01:44:31;4.70;;;3.15;;
40286;SDS011;25998;46.604;13.610;2023-06-14T01:47:43;3.47;;;3.13;;
40286;SDS011;25998;46.604;13.610;2023-06-14T01:50:55;3.72;;;2.88;;
40286;SDS011;25998;46.604;13.610;2023-06-14T01:54:06;6.20;;;3.40;;
40286;SDS011;25998;46.604;13.610;2023-06-14T01:57:17;4.30;;;3.22;;
40286;SDS011;25998;46.604;13.610;2023-06-14T02:00:27;6.85;;;3.55;;
40286;SDS011;25998;46.604;13.610;2023-06-14T02:03:38;5.40;;;3.20;;
40286;SDS011;25998;46.604;13.610;2023-06-14T02:06:49;5.28;;;3.50;;
40286;SDS011;25998;46.604;13.610;2023-06-14T02:10:00;3.95;;;3.53;;
40286;SDS011;25998;46.604;13.610;2023-06-14T02:13:12;7.00;;;3.80;;
40286;SDS011;25998;46.604;13.610;2023-06-14T02:16:22;3.92;;;3.10;;
40286;SDS011;25998;46.604;13.610;2023-06-14T02:19:34;7.43;;;3.15;;
40286;SDS011;25998;46.604;13.610;2023-06-14T02:22:45;4.95;;;3.50;;
40286;SDS011;25998;46.604;13.610;2023-06-14T02:25:56;5.57;;;3.40;;
40286;SDS011;25998;46.604;13.610;2023-06-14T02:29:07;4.55;;;3.40;;
40286;SDS011;25998;46.604;13.610;2023-06-14T02:32:22;4.63;;;3.60;;
40286;SDS011;25998;46.604;13.610;2023-06-14T02:35:33;5.45;;;4.07;;
40286;SDS011;25998;46.604;13.610;2023-06-14T02:38:44;5.82;;;3.35;;
40286;SDS011;25998;46.604;13.610;2023-06-14T02:41:55;4.97;;;3.58;;
40286;SDS011;25998;46.604;13.610;2023-06-14T02:45:06;7.57;;;4.40;;
40286;SDS011;25998;46.604;13.610;2023-06-14T02:48:18;4.70;;;3.88;;
40286;SDS011;25998;46.604;13.610;2023-06-14T02:51:29;4.47;;;3.45;;
40286;SDS011;25998;46.604;13.610;2023-06-14T02:54:40;5.80;;;3.88;;
40286;SDS011;25998;46.604;13.610;2023-06-14T02:57:51;4.63;;;3.60;;
40286;SDS011;25998;46.604;13.610;2023-06-14T03:01:06;4.78;;;3.17;;
40286;SDS011;25998;46.604;13.610;2023-06-14T03:04:17;5.05;;;3.70;;
40286;SDS011;25998;46.604;13.610;2023-06-14T03:07:28;4.03;;;3.60;;
40286;SDS011;25998;46.604;13.610;2023-06-14T03:10:39;5.10;;;3.70;;
40286;SDS011;25998;46.604;13.610;2023-06-14T03:13:51;5.15;;;3.60;;
40286;SDS011;25998;46.604;13.610;2023-06-14T03:17:02;5.35;;;3.92;;
40286;SDS011;25998;46.604;13.610;2023-06-14T03:20:14;6.00;;;3.60;;
40286;SDS011;25998;46.604;13.610;2023-06-14T03:23:25;8.05;;;3.67;;
40286;SDS011;25998;46.604;13.610;2023-06-14T03:26:37;5.30;;;3.83;;
40286;SDS011;25998;46.604;13.610;2023-06-14T03:29:47;6.57;;;3.97;;
40286;SDS011;25998;46.604;13.610;2023-06-14T03:32:58;4.45;;;3.67;;
40286;SDS011;25998;46.604;13.610;2023-06-14T03:36:11;4.20;;;3.58;;
40286;SDS011;25998;46.604;13.610;2023-06-14T03:39:22;5.15;;;3.80;;
40286;SDS011;25998;46.604;13.610;2023-06-14T03:42:32;5.95;;;3.78;;
40286;SDS011;25998;46.604;13.610;2023-06-14T03:45:43;5.35;;;3.78;;
40286;SDS011;25998;46.604;13.610;2023-06-14T03:48:54;5.18;;;4.40;;
40286;SDS011;25998;46.604;13.610;2023-06-14T03:52:06;5.30;;;4.80;;
40286;SDS011;25998;46.604;13.610;2023-06-14T03:55:17;5.00;;;4.28;;
40286;SDS011;25998;46.604;13.610;2023-06-14T03:58:27;6.50;;;4.45;;
40286;SDS011;25998;46.604;13.610;2023-06-14T04:01:38;4.95;;;4.45;;
40286;SDS011;25998;46.604;13.610;2023-06-14T04:04:56;6.20;;;4.60;;
40286;SDS011;25998;46.604;13.610;2023-06-14T04:08:07;5.90;;;5.22;;
40286;SDS011;25998;46.604;13.610;2023-06-14T04:11:19;6.78;;;5.25;;
40286;SDS011;25998;46.604;13.610;2023-06-14T04:14:30;6.80;;;5.82;;
40286;SDS011;25998;46.604;13.610;2023-06-14T04:17:42;11.70;;;6.47;;
40286;SDS011;25998;46.604;13.610;2023-06-14T04:20:53;8.48;;;6.18;;
40286;SDS011;25998;46.604;13.610;2023-06-14T04:24:06;7.85;;;7.07;;
40286;SDS011;25998;46.604;13.610;2023-06-14T04:27:23;7.03;;;6.30;;
40286;SDS011;25998;46.604;13.610;2023-06-14T04:30:36;7.65;;;6.20;;
40286;SDS011;25998;46.604;13.610;2023-06-14T04:33:48;9.85;;;8.32;;
40286;SDS011;25998;46.604;13.610;2023-06-14T04:37:03;10.27;;;9.00;;
40286;SDS011;25998;46.604;13.610;2023-06-14T04:40:15;10.38;;;9.38;;
40286;SDS011;25998;46.604;13.610;2023-06-14T04:43:27;8.98;;;8.07;;
40286;SDS011;25998;46.604;13.610;2023-06-14T04:46:41;12.55;;;9.27;;
40286;SDS011;25998;46.604;13.610;2023-06-14T04:49:59;11.27;;;8.30;;
40286;SDS011;25998;46.604;13.610;2023-06-14T04:53:10;9.85;;;8.85;;
40286;SDS011;25998;46.604;13.610;2023-06-14T04:56:21;10.88;;;9.38;;
40286;SDS011;25998;46.604;13.610;2023-06-14T04:59:33;11.68;;;10.45;;
40286;SDS011;25998;46.604;13.610;2023-06-14T05:02:45;14.15;;;10.32;;
40286;SDS011;25998;46.604;13.610;2023-06-14T05:05:57;13.30;;;11.30;;
40286;SDS011;25998;46.604;13.610;2023-06-14T05:09:08;15.50;;;13.80;;
40286;SDS011;25998;46.604;13.610;2023-06-14T05:12:18;17.35;;;14.57;;
40286;SDS011;25998;46.604;13.610;2023-06-14T05:15:29;16.27;;;14.65;;
40286;SDS011;25998;46.604;13.610;2023-06-14T05:18:40;17.98;;;15.63;;
40286;SDS011;25998;46.604;13.610;2023-06-14T05:21:51;18.50;;;16.48;;
40286;SDS011;25998;46.604;13.610;2023-06-14T05:25:04;20.05;;;16.20;;
40286;SDS011;25998;46.604;13.610;2023-06-14T05:28:16;19.15;;;16.25;;
40286;SDS011;25998;46.604;13.610;2023-06-14T05:31:27;17.38;;;15.57;;
40286;SDS011;25998;46.604;13.610;2023-06-14T05:34:38;18.95;;;16.55;;
40286;SDS011;25998;46.604;13.610;2023-06-14T05:37:48;17.98;;;15.85;;
40286;SDS011;25998;46.604;13.610;2023-06-14T05:40:59;18.85;;;16.73;;
40286;SDS011;25998;46.604;13.610;2023-06-14T05:44:10;17.42;;;14.77;;
40286;SDS011;25998;46.604;13.610;2023-06-14T05:47:21;18.67;;;15.18;;
40286;SDS011;25998;46.604;13.610;2023-06-14T05:50:32;16.55;;;14.85;;
40286;SDS011;25998;46.604;13.610;2023-06-14T05:53:44;16.83;;;15.23;;
40286;SDS011;25998;46.604;13.610;2023-06-14T05:56:58;16.20;;;14.38;;
40286;SDS011;25998;46.604;13.610;2023-06-14T06:00:11;16.05;;;13.85;;
40286;SDS011;25998;46.604;13.610;2023-06-14T06:03:24;17.13;;;15.52;;
40286;SDS011;25998;46.604;13.610;2023-06-14T06:06:35;16.92;;;15.20;;
40286;SDS011;25998;46.604;13.610;2023-06-14T06:09:46;14.20;;;12.57;;
40286;SDS011;25998;46.604;13.610;2023-06-14T06:12:56;15.73;;;13.80;;
40286;SDS011;25998;46.604;13.610;2023-06-14T06:16:07;15.68;;;14.10;;
40286;SDS011;25998;46.604;13.610;2023-06-14T06:19:18;15.25;;;13.75;;
40286;SDS011;25998;46.604;13.610;2023-06-14T06:22:30;15.07;;;13.65;;
40286;SDS011;25998;46.604;13.610;2023-06-14T06:25:42;14.50;;;12.98;;
40286;SDS011;25998;46.604;13.610;2023-06-14T06:28:53;15.65;;;14.07;;
40286;SDS011;25998;46.604;13.610;2023-06-14T06:32:04;15.73;;;13.80;;
40286;SDS011;25998;46.604;13.610;2023-06-14T06:35:18;16.52;;;14.38;;
40286;SDS011;25998;46.604;13.610;2023-06-14T06:38:29;15.15;;;13.60;;
40286;SDS011;25998;46.604;13.610;2023-06-14T06:41:39;16.08;;;14.45;;
40286;SDS011;25998;46.604;13.610;2023-06-14T06:44:50;16.35;;;14.73;;
40286;SDS011;25998;46.604;13.610;2023-06-14T06:48:01;16.45;;;14.80;;
40286;SDS011;25998;46.604;13.610;2023-06-14T06:51:12;17.67;;;13.55;;
40286;SDS011;25998;46.604;13.610;2023-06-14T06:54:24;16.55;;;14.32;;
40286;SDS011;25998;46.604;13.610;2023-06-14T06:57:35;18.58;;;14.32;;
40286;SDS011;25998;46.604;13.610;2023-06-14T07:00:46;14.20;;;12.65;;
40286;SDS011;25998;46.604;13.610;2023-06-14T07:03:57;16.40;;;14.68;;
40286;SDS011;25998;46.604;13.610;2023-06-14T07:07:07;16.20;;;14.60;;
40286;SDS011;25998;46.604;13.610;2023-06-14T07:10:19;16.15;;;14.45;;
40286;SDS011;25998;46.604;13.610;2023-06-14T07:13:31;17.63;;;14.70;;
40286;SDS011;25998;46.604;13.610;2023-06-14T07:16:42;16.25;;;14.40;;
40286;SDS011;25998;46.604;13.610;2023-06-14T07:19:53;17.40;;;14.50;;
40286;SDS011;25998;46.604;13.610;2023-06-14T07:23:04;16.08;;;14.50;;
40286;SDS011;25998;46.604;13.610;2023-06-14T07:26:15;12.88;;;11.68;;
40286;SDS011;25998;46.604;13.610;2023-06-14T07:29:26;14.90;;;13.60;;
40286;SDS011;25998;46.604;13.610;2023-06-14T07:32:37;15.65;;;13.98;;
40286;SDS011;25998;46.604;13.610;2023-06-14T07:35:48;14.10;;;12.70;;
40286;SDS011;25998;46.604;13.610;2023-06-14T07:39:00;14.07;;;12.73;;
40286;SDS011;25998;46.604;13.610;2023-06-14T07:42:13;13.65;;;11.80;;
40286;SDS011;25998;46.604;13.610;2023-06-14T07:45:24;13.88;;;12.35;;
40286;SDS011;25998;46.604;13.610;2023-06-14T07:48:35;12.30;;;11.10;;
40286;SDS011;25998;46.604;13.610;2023-06-14T07:51:46;12.48;;;11.20;;
40286;SDS011;25998;46.604;13.610;2023-06-14T07:54:58;11.35;;;9.52;;
40286;SDS011;25998;46.604;13.610;2023-06-14T07:58:09;11.73;;;8.93;;
40286;SDS011;25998;46.604;13.610;2023-06-14T08:01:20;10.18;;;9.20;;
40286;SDS011;25998;46.604;13.610;2023-06-14T08:04:34;12.48;;;9.27;;
40286;SDS011;25998;46.604;13.610;2023-06-14T08:07:45;10.70;;;8.55;;
40286;SDS011;25998;46.604;13.610;2023-06-14T08:10:55;9.82;;;8.35;;
40286;SDS011;25998;46.604;13.610;2023-06-14T08:14:06;9.73;;;8.82;;
40286;SDS011;25998;46.604;13.610;2023-06-14T08:17:18;10.55;;;8.20;;
40286;SDS011;25998;46.604;13.610;2023-06-14T08:20:29;9.48;;;8.48;;
40286;SDS011;25998;46.604;13.610;2023-06-14T08:23:41;8.85;;;7.95;;
40286;SDS011;25998;46.604;13.610;2023-06-14T08:26:53;9.93;;;8.73;;
40286;SDS011;25998;46.604;13.610;2023-06-14T08:30:04;10.20;;;9.00;;
40286;SDS011;25998;46.604;13.610;2023-06-14T08:33:15;9.50;;;8.60;;
40286;SDS011;25998;46.604;13.610;2023-06-14T08:36:26;9.88;;;8.88;;
40286;SDS011;25998;46.604;13.610;2023-06-14T08:39:37;8.68;;;7.88;;
40286;SDS011;25998;46.604;13.610;2023-06-14T08:42:53;9.55;;;8.50;;
40286;SDS011;25998;46.604;13.610;2023-06-14T08:46:05;8.75;;;7.75;;
40286;SDS011;25998;46.604;13.610;2023-06-14T08:49:20;9.40;;;7.95;;
40286;SDS011;25998;46.604;13.610;2023-06-14T08:52:32;8.93;;;7.72;;
40286;SDS011;25998;46.604;13.610;2023-06-14T08:55:50;9.25;;;8.05;;
40286;SDS011;25998;46.604;13.610;2023-06-14T08:59:03;9.77;;;7.65;;
40286;SDS011;25998;46.604;13.610;2023-06-14T09:02:17;8.85;;;7.60;;
40286;SDS011;25998;46.604;13.610;2023-06-14T09:05:29;9.52;;;7.95;;
40286;SDS011;25998;46.604;13.610;2023-06-14T09:08:41;9.07;;;7.45;;
40286;SDS011;25998;46.604;13.610;2023-06-14T09:11:53;10.95;;;8.38;;
40286;SDS011;25998;46.604;13.610;2023-06-14T09:15:05;10.43;;;8.40;;
40286;SDS011;25998;46.604;13.610;2023-06-14T09:18:21;9.52;;;8.38;;
40286;SDS011;25998;46.604;13.610;2023-06-14T09:21:43;9.52;;;8.50;;
40286;SDS011;25998;46.604;13.610;2023-06-14T09:24:58;10.45;;;8.13;;
40286;SDS011;25998;46.604;13.610;2023-06-14T09:28:09;8.30;;;7.45;;
40286;SDS011;25998;46.604;13.610;2023-06-14T09:31:20;9.02;;;8.13;;
40286;SDS011;25998;46.604;13.610;2023-06-14T09:34:32;9.52;;;8.32;;
40286;SDS011;25998;46.604;13.610;2023-06-14T09:37:45;11.23;;;8.65;;
40286;SDS011;25998;46.604;13.610;2023-06-14T09:40:57;10.15;;;8.77;;
40286;SDS011;25998;46.604;13.610;2023-06-14T09:44:09;9.60;;;8.77;;
40286;SDS011;25998;46.604;13.610;2023-06-14T09:47:22;9.32;;;8.20;;
40286;SDS011;25998;46.604;13.610;2023-06-14T09:50:34;9.55;;;8.55;;
40286;SDS011;25998;46.604;13.610;2023-06-14T09:53:45;11.75;;;9.82;;
40286;SDS011;25998;46.604;13.610;2023-06-14T09:56:58;8.75;;;7.95;;
40286;SDS011;25998;46.604;13.610;2023-06-14T10:00:12;9.80;;;8.02;;
40286;SDS011;25998;46.604;13.610;2023-06-14T10:03:28;9.88;;;8.50;;
40286;SDS011;25998;46.604;13.610;2023-06-14T10:06:40;8.75;;;7.95;;
40286;SDS011;25998;46.604;13.610;2023-06-14T10:09:52;9.48;;;8.57;;
40286;SDS011;25998;46.604;13.610;2023-06-14T10:13:03;9.93;;;8.05;;
40286;SDS011;25998;46.604;13.610;2023-06-14T10:20:28;9.60;;;8.70;;
40286;SDS011;25998;46.604;13.610;2023-06-14T10:23:28;8.57;;;7.78;;
40286;SDS011;25998;46.604;13.610;2023-06-14T10:26:51;9.50;;;7.45;;
40286;SDS011;25998;46.604;13.610;2023-06-14T10:30:05;9.15;;;8.10;;
40286;SDS011;25998;46.604;13.610;2023-06-14T10:33:20;9.27;;;8.30;;
40286;SDS011;25998;46.604;13.610;2023-06-14T10:36:32;8.93;;;8.13;;
40286;SDS011;25998;46.604;13.610;2023-06-14T10:39:45;9.45;;;8.32;;
40286;SDS011;25998;46.604;13.610;2023-06-14T10:42:59;8.15;;;7.32;;
40286;SDS011;25998;46.604;13.610;2023-06-14T10:46:16;8.57;;;7.78;;
40286;SDS011;25998;46.604;13.610;2023-06-14T10:49:38;8.50;;;7.60;;
40286;SDS011;25998;46.604;13.610;2023-06-14T10:52:52;9.55;;;7.60;;
40286;SDS011;25998;46.604;13.610;2023-06-14T10:56:06;13.20;;;11.88;;
40286;SDS011;25998;46.604;13.610;2023-06-14T10:59:18;10.23;;;8.02;;
40286;SDS011;25998;46.604;13.610;2023-06-14T11:03:17;8.85;;;8.05;;
40286;SDS011;25998;46.604;13.610;2023-06-14T11:06:25;9.15;;;7.88;;
40286;SDS011;25998;46.604;13.610;2023-06-14T11:09:52;8.30;;;7.40;;
40286;SDS011;25998;46.604;13.610;2023-06-14T11:13:06;8.23;;;6.50;;
40286;SDS011;25998;46.604;13.610;2023-06-14T11:16:18;7.15;;;5.35;;
40286;SDS011;25998;46.604;13.610;2023-06-14T11:19:29;4.95;;;4.43;;
40286;SDS011;25998;46.604;13.610;2023-06-14T11:22:41;5.28;;;4.22;;
40286;SDS011;25998;46.604;13.610;2023-06-14T11:25:52;6.40;;;4.85;;
40286;SDS011;25998;46.604;13.610;2023-06-14T11:29:03;4.60;;;4.10;;
40286;SDS011;25998;46.604;13.610;2023-06-14T11:32:14;5.13;;;4.15;;
40286;SDS011;25998;46.604;13.610;2023-06-14T11:35:28;4.82;;;4.30;;
40286;SDS011;25998;46.604;13.610;2023-06-14T11:38:39;5.75;;;4.53;;
40286;SDS011;25998;46.604;13.610;2023-06-14T11:41:49;5.63;;;4.78;;
40286;SDS011;25998;46.604;13.610;2023-06-14T11:45:00;6.97;;;4.53;;
40286;SDS011;25998;46.604;13.610;2023-06-14T11:48:13;5.53;;;4.30;;
40286;SDS011;25998;46.604;13.610;2023-06-14T11:51:24;6.20;;;4.60;;
40286;SDS011;25998;46.604;13.610;2023-06-14T11:54:35;7.10;;;4.88;;
40286;SDS011;25998;46.604;13.610;2023-06-14T11:57:46;6.25;;;4.40;;
40286;SDS011;25998;46.604;13.610;2023-06-14T12:00:57;5.10;;;4.50;;
40286;SDS011;25998;46.604;13.610;2023-06-14T12:04:08;5.70;;;4.38;;
40286;SDS011;25998;46.604;13.610;2023-06-14T12:07:19;4.85;;;4.00;;
40286;SDS011;25998;46.604;13.610;2023-06-14T12:10:39;5.60;;;4.07;;
40286;SDS011;25998;46.604;13.610;2023-06-14T12:13:53;5.82;;;3.67;;
40286;SDS011;25998;46.604;13.610;2023-06-14T12:17:05;4.70;;;4.28;;
40286;SDS011;25998;46.604;13.610;2023-06-14T12:20:16;4.72;;;4.10;;
40286;SDS011;25998;46.604;13.610;2023-06-14T12:23:44;4.55;;;4.00;;
40286;SDS011;25998;46.604;13.610;2023-06-14T12:26:57;5.40;;;4.30;;
40286;SDS011;25998;46.604;13.610;2023-06-14T12:30:14;4.97;;;4.47;;
40286;SDS011;25998;46.604;13.610;2023-06-14T12:33:25;5.35;;;4.40;;
40286;SDS011;25998;46.604;13.610;2023-06-14T12:36:36;4.95;;;4.50;;
40286;SDS011;25998;46.604;13.610;2023-06-14T12:39:51;6.28;;;3.70;;
40286;SDS011;25998;46.604;13.610;2023-06-14T12:43:02;4.72;;;4.20;;
40286;SDS011;25998;46.604;13.610;2023-06-14T12:46:14;5.70;;;4.10;;
40286;SDS011;25998;46.604;13.610;2023-06-14T12:49:25;5.57;;;4.38;;
40286;SDS011;25998;46.604;13.610;2023-06-14T12:52:36;4.85;;;4.35;;
40286;SDS011;25998;46.604;13.610;2023-06-14T12:55:47;5.03;;;4.13;;
40286;SDS011;25998;46.604;13.610;2023-06-14T12:58:58;5.05;;;4.15;;
40286;SDS011;25998;46.604;13.610;2023-06-14T13:02:12;8.57;;;4.53;;
40286;SDS011;25998;46.604;13.610;2023-06-14T13:05:24;6.05;;;4.38;;
40286;SDS011;25998;46.604;13.610;2023-06-14T13:08:35;5.80;;;4.30;;
40286;SDS011;25998;46.604;13.610;2023-06-14T13:11:46;6.32;;;4.15;;
40286;SDS011;25998;46.604;13.610;2023-06-14T13:14:57;7.10;;;4.85;;
40286;SDS011;25998;46.604;13.610;2023-06-14T13:18:08;6.03;;;4.47;;
40286;SDS011;25998;46.604;13.610;2023-06-14T13:21:18;4.53;;;3.70;;
40286;SDS011;25998;46.604;13.610;2023-06-14T13:24:29;6.28;;;3.95;;
40286;SDS011;25998;46.604;13.610;2023-06-14T13:27:40;5.80;;;3.70;;
40286;SDS011;25998;46.604;13.610;2023-06-14T13:30:51;6.97;;;4.20;;
40286;SDS011;25998;46.604;13.610;2023-06-14T13:34:02;5.07;;;4.13;;
40286;SDS011;25998;46.604;13.610;2023-06-14T13:37:14;4.47;;;3.85;;
40286;SDS011;25998;46.604;13.610;2023-06-14T13:40:26;4.15;;;3.63;;
40286;SDS011;25998;46.604;13.610;2023-06-14T13:43:37;6.15;;;3.70;;
40286;SDS011;25998;46.604;13.610;2023-06-14T13:46:47;4.68;;;3.70;;
40286;SDS011;25998;46.604;13.610;2023-06-14T13:49:58;4.93;;;3.92;;
40286;SDS011;25998;46.604;13.610;2023-06-14T13:53:09;5.63;;;3.88;;
40286;SDS011;25998;46.604;13.610;2023-06-14T13:56:20;4.40;;;3.95;;
40286;SDS011;25998;46.604;13.610;2023-06-14T13:59:32;6.47;;;4.20;;
40286;SDS011;25998;46.604;13.610;2023-06-14T14:02:43;4.38;;;3.50;;
40286;SDS011;25998;46.604;13.610;2023-06-14T14:05:55;6.38;;;4.28;;
40286;SDS011;25998;46.604;13.610;2023-06-14T14:09:06;4.35;;;3.60;;
40286;SDS011;25998;46.604;13.610;2023-06-14T14:12:18;4.20;;;3.78;;
40286;SDS011;25998;46.604;13.610;2023-06-14T14:15:29;7.22;;;4.10;;
40286;SDS011;25998;46.604;13.610;2023-06-14T14:18:40;5.80;;;4.00;;
40286;SDS011;25998;46.604;13.610;2023-06-14T14:21:51;8.00;;;4.00;;
40286;SDS011;25998;46.604;13.610;2023-06-14T14:25:03;5.57;;;4.10;;
40286;SDS011;25998;46.604;13.610;2023-06-14T14:28:14;7.15;;;4.10;;
40286;SDS011;25998;46.604;13.610;2023-06-14T14:31:26;7.65;;;4.07;;
40286;SDS011;25998;46.604;13.610;2023-06-14T14:34:37;4.57;;;3.83;;
40286;SDS011;25998;46.604;13.610;2023-06-14T14:37:47;5.60;;;4.05;;
40286;SDS011;25998;46.604;13.610;2023-06-14T14:40:58;4.97;;;4.20;;
40286;SDS011;25998;46.604;13.610;2023-06-14T14:44:09;5.47;;;4.30;;
40286;SDS011;25998;46.604;13.610;2023-06-14T14:47:20;4.97;;;4.40;;
40286;SDS011;25998;46.604;13.610;2023-06-14T14:50:31;5.60;;;4.63;;
40286;SDS011;25998;46.604;13.610;2023-06-14T14:53:42;6.57;;;4.82;;
40286;SDS011;25998;46.604;13.610;2023-06-14T14:56:53;8.25;;;5.30;;
40286;SDS011;25998;46.604;13.610;2023-06-14T15:00:04;9.63;;;4.50;;
40286;SDS011;25998;46.604;13.610;2023-06-14T15:03:16;9.10;;;5.95;;
40286;SDS011;25998;46.604;13.610;2023-06-14T15:06:27;8.90;;;4.78;;
40286;SDS011;25998;46.604;13.610;2023-06-14T15:09:38;8.40;;;4.90;;
40286;SDS011;25998;46.604;13.610;2023-06-14T15:12:51;5.72;;;4.75;;
40286;SDS011;25998;46.604;13.610;2023-06-14T15:16:02;4.90;;;4.15;;
40286;SDS011;25998;46.604;13.610;2023-06-14T15:19:13;5.57;;;4.65;;
40286;SDS011;25998;46.604;13.610;2023-06-14T15:22:30;5.03;;;4.50;;
40286;SDS011;25998;46.604;13.610;2023-06-14T15:25:41;5.63;;;4.72;;
40286;SDS011;25998;46.604;13.610;2023-06-14T15:28:52;7.25;;;4.88;;
40286;SDS011;25998;46.604;13.610;2023-06-14T15:32:03;5.65;;;4.80;;
40286;SDS011;25998;46.604;13.610;2023-06-14T15:35:16;5.80;;;4.50;;
40286;SDS011;25998;46.604;13.610;2023-06-14T15:38:28;6.38;;;4.97;;
40286;SDS011;25998;46.604;13.610;2023-06-14T15:41:39;6.60;;;4.80;;
40286;SDS011;25998;46.604;13.610;2023-06-14T15:44:49;5.38;;;4.78;;
40286;SDS011;25998;46.604;13.610;2023-06-14T15:48:00;5.30;;;4.80;;
40286;SDS011;25998;46.604;13.610;2023-06-14T15:51:11;5.22;;;4.72;;
40286;SDS011;25998;46.604;13.610;2023-06-14T15:54:22;5.97;;;4.60;;
40286;SDS011;25998;46.604;13.610;2023-06-14T15:57:33;6.18;;;4.90;;
40286;SDS011;25998;46.604;13.610;2023-06-14T16:00:44;6.18;;;4.38;;
40286;SDS011;25998;46.604;13.610;2023-06-14T16:03:55;5.50;;;4.57;;
40286;SDS011;25998;46.604;13.610;2023-06-14T16:07:06;5.53;;;4.53;;
40286;SDS011;25998;46.604;13.610;2023-06-14T16:10:17;5.90;;;4.25;;
40286;SDS011;25998;46.604;13.610;2023-06-14T16:13:28;5.90;;;4.60;;
40286;SDS011;25998;46.604;13.610;2023-06-14T16:16:38;5.75;;;4.40;;
40286;SDS011;25998;46.604;13.610;2023-06-14T16:19:49;5.93;;;4.43;;
40286;SDS011;25998;46.604;13.610;2023-06-14T16:23:00;4.95;;;4.13;;
40286;SDS011;25998;46.604;13.610;2023-06-14T16:26:11;4.50;;;4.10;;
40286;SDS011;25998;46.604;13.610;2023-06-14T16:29:23;4.57;;;4.00;;
40286;SDS011;25998;46.604;13.610;2023-06-14T16:32:33;5.85;;;4.45;;
40286;SDS011;25998;46.604;13.610;2023-06-14T16:35:44;6.10;;;3.92;;
40286;SDS011;25998;46.604;13.610;2023-06-14T16:38:55;6.10;;;4.38;;
40286;SDS011;25998;46.604;13.610;2023-06-14T16:42:07;5.10;;;4.43;;
40286;SDS011;25998;46.604;13.610;2023-06-14T16:45:18;5.80;;;4.30;;
40286;SDS011;25998;46.604;13.610;2023-06-14T16:48:28;5.15;;;4.35;;
40286;SDS011;25998;46.604;13.610;2023-06-14T16:51:39;5.97;;;4.20;;
40286;SDS011;25998;46.604;13.610;2023-06-14T16:54:50;4.28;;;3.83;;
40286;SDS011;25998;46.604;13.610;2023-06-14T16:58:01;4.90;;;4.40;;
40286;SDS011;25998;46.604;13.610;2023-06-14T17:01:12;5.57;;;4.15;;
40286;SDS011;25998;46.604;13.610;2023-06-14T17:04:23;4.85;;;4.35;;
40286;SDS011;25998;46.604;13.610;2023-06-14T17:07:34;5.18;;;4.07;;
40286;SDS011;25998;46.604;13.610;2023-06-14T17:10:45;4.78;;;4.10;;
40286;SDS011;25998;46.604;13.610;2023-06-14T17:13:56;5.28;;;4.07;;
40286;SDS011;25998;46.604;13.610;2023-06-14T17:17:07;6.38;;;4.47;;
40286;SDS011;25998;46.604;13.610;2023-06-14T17:20:18;5.18;;;4.50;;
40286;SDS011;25998;46.604;13.610;2023-06-14T17:23:29;6.13;;;4.13;;
40286;SDS011;25998;46.604;13.610;2023-06-14T17:26:40;5.65;;;4.25;;
40286;SDS011;25998;46.604;13.610;2023-06-14T17:29:51;8.02;;;4.43;;
40286;SDS011;25998;46.604;13.610;2023-06-14T17:33:02;6.28;;;4.93;;
40286;SDS011;25998;46.604;13.610;2023-06-14T17:36:19;5.50;;;4.70;;
40286;SDS011;25998;46.604;13.610;2023-06-14T17:39:29;8.25;;;4.47;;
40286;SDS011;25998;46.604;13.610;2023-06-14T17:42:40;5.63;;;4.30;;
40286;SDS011;25998;46.604;13.610;2023-06-14T17:45:51;6.38;;;4.72;;
40286;SDS011;25998;46.604;13.610;2023-06-14T17:49:02;5.30;;;3.90;;
40286;SDS011;25998;46.604;13.610;2023-06-14T17:52:13;4.75;;;4.25;;
40286;SDS011;25998;46.604;13.610;2023-06-14T17:55:24;4.97;;;4.18;;
40286;SDS011;25998;46.604;13.610;2023-06-14T17:58:34;5.60;;;4.55;;
40286;SDS011;25998;46.604;13.610;2023-06-14T18:01:45;9.02;;;4.13;;
40286;SDS011;25998;46.604;13.610;2023-06-14T18:04:56;5.55;;;4.55;;
40286;SDS011;25998;46.604;13.610;2023-06-14T18:08:08;5.93;;;4.45;;
40286;SDS011;25998;46.604;13.610;2023-06-14T18:11:19;5.32;;;4.80;;
40286;SDS011;25998;46.604;13.610;2023-06-14T18:14:30;8.73;;;4.90;;
40286;SDS011;25998;46.604;13.610;2023-06-14T18:17:41;8.70;;;4.93;;
40286;SDS011;25998;46.604;13.610;2023-06-14T18:20:52;6.75;;;4.80;;
40286;SDS011;25998;46.604;13.610;2023-06-14T18:24:03;8.48;;;5.00;;
40286;SDS011;25998;46.604;13.610;2023-06-14T18:27:15;9.57;;;5.25;;
40286;SDS011;25998;46.604;13.610;2023-06-14T18:30:25;14.63;;;5.28;;
40286;SDS011;25998;46.604;13.610;2023-06-14T18:33:37;9.30;;;5.35;;
40286;SDS011;25998;46.604;13.610;2023-06-14T18:36:47;10.80;;;5.68;;
40286;SDS011;25998;46.604;13.610;2023-06-14T18:39:58;8.65;;;4.80;;
40286;SDS011;25998;46.604;13.610;2023-06-14T18:43:09;7.10;;;4.70;;
40286;SDS011;25998;46.604;13.610;2023-06-14T18:46:22;8.50;;;4.68;;
40286;SDS011;25998;46.604;13.610;2023-06-14T18:49:33;7.13;;;5.00;;
40286;SDS011;25998;46.604;13.610;2023-06-14T18:52:45;11.73;;;4.85;;
40286;SDS011;25998;46.604;13.610;2023-06-14T18:55:56;10.00;;;5.00;;
40286;SDS011;25998;46.604;13.610;2023-06-14T18:59:07;13.55;;;5.40;;